Time;durP1;ratioP1;P1;durP2;ratioP2;P2;SDS_P1;SDS_P2;PMS_P1;PMS_P2;Temp;Humidity;BMP_temperature;BMP_pressure;BME280_temperature;BME280_humidity;BME280_pressure;Samples;Min_cycle;Max_cycle;Signal;HPM_P1;HPM_P2
2021/04/01 00:00:29;;;;;;;;;;;;;;;17.07;59.35;101443.75;5014981;28;1517;-56
2021/04/01 00:02:54;;;;;;;;;;;;;;;17.06;58.47;101425.16;5009930;28;1742;-57
2021/04/01 00:05:21;;;;;;;;;;;;;;;17.09;59.37;101433.81;5011762;28;1521;-58
2021/04/01 00:07:46;;;;;;;;;;;;;;;17.10;58.83;101440.00;5014620;28;1427;-56
2021/04/01 00:10:13;;;;;;;;;;;;;;;17.06;59.59;101427.81;5013584;28;1340;-56
2021/04/01 00:12:38;;;;;;;;;;;;;;;17.05;59.69;101440.34;5012096;28;1573;-58
2021/04/01 00:15:04;;;;;;;;;;;;;;;17.03;58.29;101431.56;5009450;28;1604;-56
2021/04/01 00:17:30;;;;;;;;;;;;;;;17.05;59.06;101432.31;5012383;28;1977;-59
2021/04/01 00:19:55;;;;;;;;;;;;;;;17.06;59.68;101431.34;5012709;28;1418;-56
2021/04/01 00:22:20;;;;;;;;;;;;;;;17.04;58.49;101421.72;5014970;28;1694;-57
2021/04/01 00:24:46;;;;;;;;;;;;;;;17.03;58.81;101409.31;5013551;28;1442;-57
2021/04/01 00:27:11;;;;;;;;;;;;;;;17.04;58.39;101429.75;5011835;28;1525;-57
2021/04/01 00:29:36;;;;;;;;;;;;;;;17.02;59.62;101423.66;5013380;28;1378;-58
2021/04/01 00:32:02;;;;;;;;;;;;;;;17.03;59.68;101431.56;5012190;28;1465;-57
2021/04/01 00:34:28;;;;;;;;;;;;;;;17.02;59.64;101419.16;5011457;28;1516;-56
2021/04/01 00:36:53;;;;;;;;;;;;;;;17.04;59.31;101433.28;5014550;28;1909;-57
2021/04/01 00:39:19;;;;;;;;;;;;;;;17.03;59.79;101430.69;5011807;28;1659;-58
2021/04/01 00:41:44;;;;;;;;;;;;;;;17.00;59.11;101409.56;5010516;28;1529;-57
2021/04/01 00:44:09;;;;;;;;;;;;;;;17.02;58.91;101440.53;5013101;28;1779;-56
2021/04/01 00:46:35;;;;;;;;;;;;;;;17.01;58.74;101436.16;5013182;28;1525;-57
2021/04/01 00:49:01;;;;;;;;;;;;;;;17.02;59.39;101434.34;5013494;28;1307;-58
2021/04/01 00:51:26;;;;;;;;;;;;;;;17.03;59.97;101441.38;5014442;28;1517;-58
2021/04/01 00:53:51;;;;;;;;;;;;;;;17.02;59.13;101440.53;5012013;28;1485;-58
2021/04/01 00:56:17;;;;;;;;;;;;;;;17.00;59.13;101437.13;5010807;28;1890;-57
2021/04/01 00:58:43;;;;;;;;;;;;;;;17.01;60.03;101433.50;5011188;28;1459;-56
2021/04/01 01:03:53;;;;;;;;;;;;;;;16.99;59.13;101422.06;5012518;28;1398;-58
2021/04/01 01:06:19;;;;;;;;;;;;;;;16.98;59.87;101422.16;5014226;28;1688;-57
2021/04/01 01:08:45;;;;;;;;;;;;;;;16.99;58.68;101416.72;5012488;28;1552;-56
2021/04/01 01:11:10;;;;;;;;;;;;;;;17.01;59.71;101420.13;5011981;28;1481;-56
2021/04/01 01:13:35;;;;;;;;;;;;;;;16.96;59.69;101411.56;5012981;28;1291;-57
2021/04/01 01:16:01;;;;;;;;;;;;;;;16.95;59.77;101415.22;5012707;28;1914;-57
2021/04/01 01:18:27;;;;;;;;;;;;;;;16.95;59.60;101407.22;5012666;28;1544;-56
2021/04/01 01:20:52;;;;;;;;;;;;;;;16.95;60.15;101412.56;5012051;28;1359;-57
2021/04/01 01:23:18;;;;;;;;;;;;;;;16.96;58.92;101408.91;5012065;28;1545;-56
2021/04/01 01:25:43;;;;;;;;;;;;;;;16.94;60.32;101408.16;5007903;28;1445;-59
2021/04/01 01:28:09;;;;;;;;;;;;;;;16.97;59.76;101405.28;5011476;28;1330;-58
2021/04/01 01:30:35;;;;;;;;;;;;;;;16.95;59.82;101396.53;5013768;28;1415;-59
2021/04/01 01:33:02;;;;;;;;;;;;;;;16.93;60.22;101406.47;5008848;28;1268;-56
2021/04/01 01:35:29;;;;;;;;;;;;;;;16.92;59.72;101387.84;5010508;28;1508;-57
2021/04/01 01:38:05;;;;;;;;;;;;;;;16.94;60.41;101410.81;5012299;28;1963;-57
2021/04/01 01:40:31;;;;;;;;;;;;;;;16.92;60.31;101406.56;5012958;28;1363;-57
2021/04/01 01:42:57;;;;;;;;;;;;;;;16.93;59.20;101403.78;5013414;28;1544;-58
2021/04/01 01:45:23;;;;;;;;;;;;;;;16.91;59.33;101405.72;5012851;28;1311;-58
2021/04/01 01:47:48;;;;;;;;;;;;;;;16.90;60.28;101409.31;5011881;28;1632;-57
2021/04/01 01:50:14;;;;;;;;;;;;;;;16.92;59.93;101409.22;5010523;28;1450;-58
2021/04/01 01:52:40;;;;;;;;;;;;;;;16.90;59.67;101414.66;5013093;28;1691;-57
2021/04/01 01:55:07;;;;;;;;;;;;;;;16.93;60.52;101397.56;5009680;28;1319;-58
2021/04/01 01:57:33;;;;;;;;;;;;;;;16.92;59.94;101401.22;5010295;28;1891;-58
2021/04/01 01:59:59;;;;;;;;;;;;;;;16.88;60.55;101395.22;5012582;28;1335;-58
2021/04/01 02:02:31;;;;;;;;;;;;;;;16.88;59.29;101400.56;5020019;23;2109;-43
2021/04/01 02:04:56;;;;;;;;;;;;;;;16.89;60.21;101413.81;5007007;28;1660;-45
2021/04/01 02:07:21;;;;;;;;;;;;;;;16.90;59.31;101420.88;5013059;28;1548;-45
2021/04/01 02:09:47;;;;;;;;;;;;;;;16.92;59.63;101406.56;5009670;28;1712;-45
2021/04/01 02:12:14;;;;;;;;;;;;;;;16.90;59.90;101414.66;5018880;23;3539;-58
2021/04/01 02:14:39;;;;;;;;;;;;;;;16.91;59.46;101427.09;5005580;28;1518;-56
2021/04/01 02:17:06;;;;;;;;;;;;;;;16.88;60.36;101412.09;5009511;28;1919;-56
2021/04/01 02:19:31;;;;;;;;;;;;;;;16.86;60.74;101419.38;5008628;28;1363;-56
2021/04/01 02:21:57;;;;;;;;;;;;;;;16.90;59.24;101426.22;5012298;28;1518;-58
2021/04/01 02:24:22;;;;;;;;;;;;;;;16.88;59.25;101413.94;5006058;28;1430;-58
2021/04/01 02:26:47;;;;;;;;;;;;;;;16.86;59.41;101418.53;5008328;28;1559;-58
2021/04/01 02:29:13;;;;;;;;;;;;;;;16.86;60.58;101427.38;5010424;28;1574;-58
2021/04/01 02:31:38;;;;;;;;;;;;;;;16.89;59.72;101420.97;5009488;28;1466;-58
2021/04/01 02:34:03;;;;;;;;;;;;;;;16.86;59.74;101413.19;5005636;28;1462;-58
2021/04/01 02:36:29;;;;;;;;;;;;;;;16.85;59.38;101422.13;5011279;28;1859;-58
2021/04/01 02:38:54;;;;;;;;;;;;;;;16.85;60.53;101428.34;5009912;28;1577;-57
2021/04/01 02:41:20;;;;;;;;;;;;;;;16.86;59.77;101424.72;5012628;28;1565;-56
2021/04/01 02:43:45;;;;;;;;;;;;;;;16.85;59.37;101420.34;5011198;28;1458;-58
2021/04/01 02:46:12;;;;;;;;;;;;;;;16.83;60.11;101422.25;5010977;28;1335;-58
2021/04/01 02:48:37;;;;;;;;;;;;;;;16.83;60.77;101434.75;5014323;28;1632;-58
2021/04/01 02:51:03;;;;;;;;;;;;;;;16.84;60.44;101433.78;5013379;28;1328;-58
2021/04/01 02:53:28;;;;;;;;;;;;;;;16.84;59.91;101441.81;5012696;28;1537;-56
2021/04/01 02:55:53;;;;;;;;;;;;;;;16.86;60.46;101439.88;5009134;28;1951;-56
2021/04/01 02:58:19;;;;;;;;;;;;;;;16.81;60.17;101428.63;5012665;28;1482;-57
2021/04/01 03:00:44;;;;;;;;;;;;;;;16.82;59.97;101443.72;5016769;28;1493;-58
2021/04/01 03:03:18;;;;;;;;;;;;;;;16.81;59.64;101447.31;5011671;28;1476;-57
2021/04/01 03:05:43;;;;;;;;;;;;;;;16.83;59.51;101448.09;5012360;28;1324;-57
2021/04/01 03:08:09;;;;;;;;;;;;;;;16.79;60.48;101436.75;5011380;28;1524;-56
2021/04/01 03:10:34;;;;;;;;;;;;;;;16.81;60.14;101440.22;5013288;28;1275;-58
2021/04/01 03:13:00;;;;;;;;;;;;;;;16.81;59.76;101441.97;5011823;28;1327;-58
2021/04/01 03:15:25;;;;;;;;;;;;;;;16.79;60.32;101443.91;5011065;28;1149;-57
2021/04/01 03:17:51;;;;;;;;;;;;;;;16.81;60.25;101441.97;5002933;28;1942;-57
2021/04/01 03:20:17;;;;;;;;;;;;;;;16.82;59.82;101446.41;5004030;28;1537;-57
2021/04/01 03:22:42;;;;;;;;;;;;;;;16.80;60.79;101445.63;5013896;28;1561;-58
2021/04/01 03:25:08;;;;;;;;;;;;;;;16.79;60.30;101443.91;5004609;28;817;-58
2021/04/01 03:27:34;;;;;;;;;;;;;;;16.79;59.99;101455.47;5003093;28;1517;-58
2021/04/01 03:30:09;;;;;;;;;;;;;;;16.82;60.00;101452.59;5003956;28;1759;-57
2021/04/01 03:32:43;;;;;;;;;;;;;;;16.82;60.35;101449.06;5004017;28;1306;-56
2021/04/01 03:35:09;;;;;;;;;;;;;;;16.80;60.36;101440.28;5005028;28;1530;-58
2021/04/01 03:37:35;;;;;;;;;;;;;;;16.79;60.82;101446.56;5013472;28;1894;-56
2021/04/01 03:40:01;;;;;;;;;;;;;;;16.81;59.40;101448.22;5003427;28;925;-58
2021/04/01 03:42:26;;;;;;;;;;;;;;;16.83;59.35;101456.13;5003070;28;1408;-58
2021/04/01 03:44:52;;;;;;;;;;;;;;;16.77;59.61;101452.03;5004440;28;1272;-57
2021/04/01 03:47:18;;;;;;;;;;;;;;;16.80;59.38;101451.81;5004718;28;1190;-58
2021/04/01 03:49:43;;;;;;;;;;;;;;;16.82;60.55;101463.28;5004775;28;1530;-56
2021/04/01 03:52:09;;;;;;;;;;;;;;;16.80;60.88;101449.13;5009159;28;967;-56
2021/04/01 03:54:34;;;;;;;;;;;;;;;16.78;60.48;101453.72;5003864;28;1261;-57
2021/04/01 03:57:00;;;;;;;;;;;;;;;16.77;59.83;101449.38;5005197;28;1898;-56
2021/04/01 03:59:31;;;;;;;;;;;;;;;16.76;60.24;101450.31;5004140;28;1397;-56
2021/04/01 04:15:09;;;;;;;;;;;;;;;16.76;60.75;101454.81;5004060;28;1406;-58
2021/04/01 04:17:34;;;;;;;;;;;;;;;16.77;59.49;101459.16;5005047;28;1981;-58
2021/04/01 04:20:00;;;;;;;;;;;;;;;16.80;60.25;101458.97;5011807;28;1508;-58
2021/04/01 04:22:26;;;;;;;;;;;;;;;16.82;60.68;101465.09;5017008;28;1693;-56
2021/04/01 04:24:53;;;;;;;;;;;;;;;16.85;59.62;101470.22;5002216;28;1581;-58
2021/04/01 04:29:46;;;;;;;;;;;;;;;16.92;59.99;101463.50;5000179;28;1558;-58
2021/04/01 04:32:11;;;;;;;;;;;;;;;16.97;59.90;101464.06;5010182;28;1573;-58
2021/04/01 04:34:37;;;;;;;;;;;;;;;17.05;59.65;101461.72;5008377;28;1569;-57
2021/04/01 04:37:02;;;;;;;;;;;;;;;17.08;59.19;101469.50;5009774;28;1897;-57
2021/04/01 04:39:27;;;;;;;;;;;;;;;16.95;59.31;101465.97;5009919;28;1426;-56
2021/04/01 04:41:53;;;;;;;;;;;;;;;17.00;59.58;101461.16;5010915;28;1434;-57
2021/04/01 04:44:18;;;;;;;;;;;;;;;17.16;59.58;101468.13;5010091;28;1445;-58
2021/04/01 04:46:43;;;;;;;;;;;;;;;17.28;58.99;101469.94;5007062;28;1457;-58
2021/04/01 04:49:08;;;;;;;;;;;;;;;17.22;58.38;101467.69;5009247;28;1418;-58
2021/04/01 04:51:34;;;;;;;;;;;;;;;17.08;59.90;101474.84;5012789;28;1460;-57
2021/04/01 04:53:59;;;;;;;;;;;;;;;17.00;59.55;101474.53;5009101;28;1683;-58
2021/04/01 04:56:25;;;;;;;;;;;;;;;16.94;60.16;101480.28;5008953;28;1910;-57
2021/04/01 04:59:10;;;;;;;;;;;;;;;16.92;59.05;101482.22;5010272;28;1493;-56
2021/04/01 05:04:55;;;;;;;;;;;;;;;16.96;60.40;101499.75;5006585;28;1421;-58
2021/04/01 05:07:11;;;;;;;;;;;;;;;17.04;59.23;101480.53;5003729;28;1284;-58
2021/04/01 05:09:36;;;;;;;;;;;;;;;17.17;59.68;101494.75;5011205;28;1632;-58
2021/04/01 05:12:02;;;;;;;;;;;;;;;17.38;58.88;101483.53;4999995;28;1597;-57
2021/04/01 05:14:27;;;;;;;;;;;;;;;17.45;58.09;101480.31;5007909;28;1636;-57
2021/04/01 05:16:52;;;;;;;;;;;;;;;17.73;57.92;101486.38;5004192;28;1973;-58
2021/04/01 05:19:19;;;;;;;;;;;;;;;17.67;57.36;101473.44;5000877;28;1458;-57
2021/04/01 05:21:54;;;;;;;;;;;;;;;17.54;57.86;101481.47;5011822;28;1458;-58
2021/04/01 05:24:22;;;;;;;;;;;;;;;17.60;57.33;101486.38;5005187;28;1454;-57
2021/04/01 05:29:27;;;;;;;;;;;;;;;18.18;56.07;101472.47;5005983;28;1379;-57
2021/04/01 05:31:53;;;;;;;;;;;;;;;18.64;55.21;101477.97;5008736;28;1453;-58
2021/04/01 05:34:18;;;;;;;;;;;;;;;18.79;54.99;101464.34;5009346;28;1465;-57
2021/04/01 05:36:46;;;;;;;;;;;;;;;18.67;55.30;101475.03;5005031;28;1989;-57
2021/04/01 05:39:18;;;;;;;;;;;;;;;18.44;55.97;101468.75;5006317;28;1450;-57
2021/04/01 05:41:44;;;;;;;;;;;;;;;18.27;56.34;101475.34;5006392;28;1418;-57
2021/04/01 05:46:58;;;;;;;;;;;;;;;18.36;56.92;101467.59;5000876;28;1511;-58
2021/04/01 06:06:00;;;;;;;;;;;;;;;18.20;57.80;101487.44;5004570;28;1499;-58
2021/04/01 06:08:27;;;;;;;;;;;;;;;18.16;57.72;101472.59;5002601;28;1480;-57
2021/04/01 06:10:54;;;;;;;;;;;;;;;18.13;57.96;101466.63;5002815;28;1449;-57
2021/04/01 06:13:22;;;;;;;;;;;;;;;18.16;58.06;101480.63;5000802;28;1393;-58
2021/04/01 06:15:48;;;;;;;;;;;;;;;18.15;58.24;101488.78;5005044;28;1981;-59
2021/04/01 06:18:14;;;;;;;;;;;;;;;18.18;58.56;101488.53;5006330;28;1468;-57
2021/04/01 06:20:42;;;;;;;;;;;;;;;18.18;58.24;101494.75;5002652;28;1584;-57
2021/04/01 06:23:07;;;;;;;;;;;;;;;18.19;57.95;101474.19;5003433;28;1469;-57
2021/04/01 06:25:34;;;;;;;;;;;;;;;18.19;57.50;101491.13;4999783;28;1459;-57
2021/04/01 06:28:01;;;;;;;;;;;;;;;18.21;57.55;101491.00;5001275;28;1771;-57
2021/04/01 06:30:28;;;;;;;;;;;;;;;18.24;57.51;101493.44;5004249;28;1463;-57
2021/04/01 06:32:58;;;;;;;;;;;;;;;18.21;57.52;101466.91;4997992;28;1373;-58
2021/04/01 06:40:25;;;;;;;;;;;;;;;18.22;58.22;101503.41;5004322;28;1498;-57
2021/04/01 06:43:02;;;;;;;;;;;;;;;18.21;58.66;101486.50;5007115;28;1215;-57
2021/04/01 06:45:29;;;;;;;;;;;;;;;18.18;57.55;101485.88;5006105;28;2244;-57
2021/04/01 06:47:56;;;;;;;;;;;;;;;18.15;58.62;101494.97;5004791;28;1557;-57
2021/04/01 06:50:25;;;;;;;;;;;;;;;18.12;58.40;101489.84;5000485;28;1429;-59
2021/04/01 06:52:58;;;;;;;;;;;;;;;18.13;58.17;101496.91;5004211;28;1483;-58
2021/04/01 06:55:47;;;;;;;;;;;;;;;18.14;58.23;101490.59;5002887;28;1370;-57
2021/04/01 07:03:27;;;;;;;;;;;;;;;18.18;58.71;101480.50;5002983;28;1487;-57
2021/04/01 07:05:54;;;;;;;;;;;;;;;18.20;58.51;101484.78;5004038;28;1478;-57
2021/04/01 07:08:30;;;;;;;;;;;;;;;18.23;58.46;101481.88;5003013;28;1602;-57
2021/04/01 07:11:01;;;;;;;;;;;;;;;18.25;58.43;101489.81;5003011;28;1493;-58
2021/04/01 07:13:30;;;;;;;;;;;;;;;18.25;58.11;101496.00;5000027;28;1561;-58
2021/04/01 07:16:08;;;;;;;;;;;;;;;18.24;56.42;101478.25;5004247;28;1922;-58
2021/04/01 07:18:55;;;;;;;;;;;;;;;18.14;55.47;101492.41;5006068;28;1647;-57
2021/04/01 07:24:31;;;;;;;;;;;;;;;18.07;51.83;101492.00;5003653;28;1163;-65
2021/04/01 07:46:32;;;;;;;;;;;;;;;18.15;48.45;101478.91;5001116;28;2252;-56
2021/04/01 07:49:03;;;;;;;;;;;;;;;18.25;48.13;101477.28;4999504;28;1425;-56
2021/04/01 07:53:56;;;;;;;;;;;;;;;18.05;49.99;101461.84;5012284;28;1395;-58
2021/04/01 07:56:29;;;;;;;;;;;;;;;18.07;51.57;101479.47;5008766;28;1893;-57
2021/04/01 08:04:09;;;;;;;;;;;;;;;17.99;50.52;101473.00;5006616;28;1414;-58
2021/04/01 08:06:36;;;;;;;;;;;;;;;17.94;50.41;101461.75;5010263;28;1084;-59
2021/04/01 08:09:04;;;;;;;;;;;;;;;17.93;48.94;101468.09;5008993;28;1412;-59
2021/04/01 08:11:33;;;;;;;;;;;;;;;17.94;49.45;101477.81;5008234;28;1216;-58
2021/04/01 08:14:18;;;;;;;;;;;;;;;17.89;49.74;101465.63;5009070;28;1405;-59
2021/04/01 08:16:52;;;;;;;;;;;;;;;17.89;49.07;101457.59;5019778;28;1918;-60
2021/04/01 08:19:22;;;;;;;;;;;;;;;17.92;49.72;101467.22;5008193;28;1368;-58
2021/04/01 08:21:49;;;;;;;;;;;;;;;17.94;49.76;101464.44;5010600;28;1187;-58
2021/04/01 08:24:32;;;;;;;;;;;;;;;17.79;48.57;101453.84;5009890;28;1437;-55
2021/04/01 08:32:42;;;;;;;;;;;;;;;17.85;47.52;101471.31;5007398;28;1355;-58
2021/04/01 08:35:03;;;;;;;;;;;;;;;17.87;46.90;101462.19;5007620;28;1843;-58
2021/04/01 08:37:31;;;;;;;;;;;;;;;17.78;46.23;101465.50;5012040;28;1886;-58
2021/04/01 08:39:58;;;;;;;;;;;;;;;17.63;44.26;101453.25;5008345;28;1453;-59
2021/04/01 08:42:42;;;;;;;;;;;;;;;17.62;46.14;101452.38;5004566;28;1488;-57
2021/04/01 08:45:32;;;;;;;;;;;;;;;17.74;45.33;101457.81;5006051;28;1458;-63
2021/04/01 08:48:13;;;;;;;;;;;;;;;17.86;46.68;101449.78;5010394;28;1517;-57
2021/04/01 08:51:14;;;;;;;;;;;;;;;17.96;48.43;101457.97;5008100;28;1640;-61
2021/04/01 08:53:59;;;;;;;;;;;;;;;17.98;48.55;101455.22;4966447;28;1497;-58
2021/04/01 08:56:33;;;;;;;;;;;;;;;18.01;48.24;101450.50;5005553;28;1984;-57
2021/04/01 08:59:17;;;;;;;;;;;;;;;18.00;49.90;101432.72;5011768;28;1417;-57
2021/04/01 09:01:42;;;;;;;;;;;;;;;18.08;49.67;101453.56;5003869;28;1494;-57
2021/04/01 09:04:08;;;;;;;;;;;;;;;18.08;49.75;101440.19;5009998;28;1374;-58
2021/04/01 09:06:35;;;;;;;;;;;;;;;18.03;49.96;101432.50;5012250;28;1385;-57
2021/04/01 09:09:25;;;;;;;;;;;;;;;18.04;50.45;101433.34;5009107;28;1367;-56
2021/04/01 09:14:30;;;;;;;;;;;;;;;18.05;50.56;101438.59;5010439;28;1258;-56
2021/04/01 09:17:11;;;;;;;;;;;;;;;18.07;51.39;101422.44;5010962;28;1971;-57
2021/04/01 09:19:37;;;;;;;;;;;;;;;18.05;51.52;101416.34;5007455;28;1521;-57
2021/04/01 09:22:13;;;;;;;;;;;;;;;18.04;51.37;101412.78;5012031;28;1226;-57
2021/04/01 09:24:38;;;;;;;;;;;;;;;18.00;52.38;101413.97;5008651;28;1478;-57
2021/04/01 09:27:09;;;;;;;;;;;;;;;18.02;52.07;101409.38;5006600;28;1588;-57
2021/04/01 09:29:41;;;;;;;;;;;;;;;17.95;52.54;101408.13;5007348;28;1571;-57
2021/04/01 09:32:07;;;;;;;;;;;;;;;17.95;53.12;101401.94;5008746;28;1520;-57
2021/04/01 09:34:33;;;;;;;;;;;;;;;17.93;52.13;101399.34;5009345;28;1271;-57
2021/04/01 09:37:07;;;;;;;;;;;;;;;17.99;52.80;101406.94;5010061;28;1886;-57
2021/04/01 09:39:34;;;;;;;;;;;;;;;18.01;52.41;101407.66;5004907;28;1511;-57
2021/04/01 09:42:07;;;;;;;;;;;;;;;17.98;53.02;101399.84;5003359;28;1612;-57
2021/04/01 09:44:33;;;;;;;;;;;;;;;18.03;53.25;101399.53;5006186;28;1562;-62
2021/04/01 09:46:58;;;;;;;;;;;;;;;18.04;53.39;101390.53;5003477;28;1535;-58
2021/04/01 09:49:28;;;;;;;;;;;;;;;18.08;53.05;101387.53;5005420;28;1439;-59
2021/04/01 09:51:53;;;;;;;;;;;;;;;18.10;52.74;101395.41;5011278;28;1373;-56
2021/04/01 09:54:19;;;;;;;;;;;;;;;18.04;53.16;101377.13;5003803;28;1422;-56
2021/04/01 09:56:53;;;;;;;;;;;;;;;18.00;53.61;101364.97;5002665;28;1951;-56
2021/04/01 09:59:20;;;;;;;;;;;;;;;18.02;53.14;101377.25;5001003;28;1450;-58
2021/04/01 10:01:46;;;;;;;;;;;;;;;18.01;53.37;101369.38;5010341;28;1443;-58
2021/04/01 10:04:18;;;;;;;;;;;;;;;18.02;53.90;101374.56;5010500;28;1520;-56
2021/04/01 10:06:51;;;;;;;;;;;;;;;18.00;53.21;101356.94;5006850;28;1582;-56
2021/04/01 10:09:16;;;;;;;;;;;;;;;18.03;53.70;101362.06;4999588;28;1452;-58
2021/04/01 10:11:47;;;;;;;;;;;;;;;18.03;53.73;101368.28;5005954;28;1434;-56
2021/04/01 10:14:12;;;;;;;;;;;;;;;18.01;53.80;101364.00;5002955;28;1255;-58
2021/04/01 10:16:56;;;;;;;;;;;;;;;18.00;54.53;101357.78;5003619;28;1957;-58
2021/04/01 10:19:23;;;;;;;;;;;;;;;18.01;53.97;101348.78;5004396;28;1399;-56
2021/04/01 10:21:48;;;;;;;;;;;;;;;18.00;54.26;101346.22;5004694;28;1385;-57
2021/04/01 10:24:24;;;;;;;;;;;;;;;18.02;54.32;101350.50;5008536;28;1446;-57
2021/04/01 10:26:51;;;;;;;;;;;;;;;18.01;53.86;101354.16;5004210;28;1460;-58
2021/04/01 10:29:24;;;;;;;;;;;;;;;18.13;54.22;101336.31;5007386;28;1328;-59
2021/04/01 10:31:51;;;;;;;;;;;;;;;18.10;53.25;101336.53;5010686;28;1423;-56
2021/04/01 10:34:16;;;;;;;;;;;;;;;18.08;54.24;101333.13;5011804;28;1409;-58
2021/04/01 10:36:43;;;;;;;;;;;;;;;18.02;53.67;101333.59;5014168;28;1955;-56
2021/04/01 10:39:09;;;;;;;;;;;;;;;18.01;54.39;101337.25;5012758;28;1529;-56
2021/04/01 10:41:47;;;;;;;;;;;;;;;17.97;53.39;101327.75;5009906;28;1410;-55
2021/04/01 10:44:13;;;;;;;;;;;;;;;17.96;53.42;101324.19;5013686;28;1516;-55
2021/04/01 10:46:41;;;;;;;;;;;;;;;17.94;50.81;101327.97;5013848;28;1191;-55
2021/04/01 10:49:06;;;;;;;;;;;;;;;17.95;50.28;101327.00;5008946;28;1494;-56
2021/04/01 10:51:32;;;;;;;;;;;;;;;17.87;51.86;101314.19;5012594;28;1160;-56
2021/04/01 10:53:57;;;;;;;;;;;;;;;17.87;52.11;101312.38;5011250;28;1434;-56
2021/04/01 10:56:24;;;;;;;;;;;;;;;17.89;50.55;101312.25;5011290;28;1893;-55
2021/04/01 10:58:53;;;;;;;;;;;;;;;17.88;50.49;101321.25;5013816;28;1648;-55
2021/04/01 11:01:20;;;;;;;;;;;;;;;17.72;47.05;101308.13;5012603;28;1495;-55
2021/04/01 11:03:47;;;;;;;;;;;;;;;17.87;48.03;101299.00;5012422;28;1398;-56
2021/04/01 11:06:13;;;;;;;;;;;;;;;17.89;49.71;101297.06;5012818;28;1288;-56
2021/04/01 11:08:40;;;;;;;;;;;;;;;17.90;51.00;101295.22;5010073;28;1541;-56
2021/04/01 11:11:07;;;;;;;;;;;;;;;17.93;51.14;101291.47;5009182;28;1590;-58
2021/04/01 11:13:33;;;;;;;;;;;;;;;17.91;50.46;101288.06;5009782;28;1546;-59
2021/04/01 11:15:58;;;;;;;;;;;;;;;17.88;50.67;101278.44;5011875;28;1989;-57
2021/04/01 11:18:24;;;;;;;;;;;;;;;17.92;51.65;101289.75;5010605;28;1574;-57
2021/04/01 11:20:51;;;;;;;;;;;;;;;17.93;51.64;101292.31;5011505;28;1288;-57
2021/04/01 11:23:19;;;;;;;;;;;;;;;17.94;50.47;101272.63;5014330;28;1629;-57
2021/04/01 11:25:49;;;;;;;;;;;;;;;17.96;51.56;101276.03;5009630;28;1351;-56
2021/04/01 11:28:14;;;;;;;;;;;;;;;17.95;51.21;101276.16;5009403;28;1421;-56
2021/04/01 11:30:48;;;;;;;;;;;;;;;17.61;52.08;101241.22;5011588;28;1439;-58
2021/04/01 11:33:14;;;;;;;;;;;;;;;17.97;51.50;101264.38;5011635;28;1406;-57
2021/04/01 11:35:41;;;;;;;;;;;;;;;17.97;51.17;101258.16;5012512;28;1681;-57
2021/04/01 11:38:11;;;;;;;;;;;;;;;17.94;52.65;101255.72;5013692;28;1953;-57
2021/04/01 11:40:39;;;;;;;;;;;;;;;17.92;52.33;101252.31;5010056;28;1220;-57
2021/04/01 11:43:04;;;;;;;;;;;;;;;17.93;52.97;101262.06;5003148;28;1306;-57
2021/04/01 11:45:34;;;;;;;;;;;;;;;17.92;52.11;101252.31;5014415;28;1435;-56
2021/04/01 11:48:00;;;;;;;;;;;;;;;17.90;51.95;101252.41;5011244;28;1720;-58
2021/04/01 11:50:25;;;;;;;;;;;;;;;17.92;52.55;101249.63;5012456;28;1513;-57
2021/04/01 11:52:55;;;;;;;;;;;;;;;17.89;53.47;101253.41;5007522;28;1652;-56
2021/04/01 11:55:21;;;;;;;;;;;;;;;17.91;52.73;101250.63;5010970;28;1388;-58
2021/04/01 11:57:46;;;;;;;;;;;;;;;17.88;52.71;101241.81;5009587;28;1941;-58
2021/04/01 12:00:20;;;;;;;;;;;;;;;17.89;52.66;101246.22;5009775;28;1368;-57
2021/04/01 12:03:14;;;;;;;;;;;;;;;17.99;51.94;101240.19;5012493;28;1507;-58
2021/04/01 12:05:42;;;;;;;;;;;;;;;18.03;52.91;101233.63;5010689;28;1740;-60
2021/04/01 12:08:07;;;;;;;;;;;;;;;18.06;52.47;101223.53;5011863;28;1433;-56
2021/04/01 12:10:33;;;;;;;;;;;;;;;18.07;51.86;101219.03;5012579;28;1780;-56
2021/04/01 12:12:59;;;;;;;;;;;;;;;18.07;53.14;101224.38;5009126;28;1768;-56
2021/04/01 12:15:35;;;;;;;;;;;;;;;18.01;52.83;101209.63;5012594;28;1500;-56
2021/04/01 12:18:03;;;;;;;;;;;;;;;17.99;53.37;101216.94;5023141;28;1976;-58
2021/04/01 12:20:28;;;;;;;;;;;;;;;17.96;53.45;101202.94;5017959;28;1728;-59
2021/04/01 12:22:57;;;;;;;;;;;;;;;17.94;53.28;101200.38;5018867;28;1711;-61
2021/04/01 12:25:24;;;;;;;;;;;;;;;18.01;52.69;101198.09;5014508;28;1724;-57
2021/04/01 12:27:53;;;;;;;;;;;;;;;18.07;52.82;101182.41;5015345;28;1417;-55
2021/04/01 12:30:20;;;;;;;;;;;;;;;18.07;47.20;101184.22;5013964;28;1753;-55
2021/04/01 12:32:47;;;;;;;;;;;;;;;17.96;48.70;101189.56;5012078;28;1556;-55
2021/04/01 12:35:15;;;;;;;;;;;;;;;17.91;50.74;101178.38;5017243;28;1524;-55
2021/04/01 12:37:41;;;;;;;;;;;;;;;17.91;51.30;101178.38;5021896;28;1894;-55
2021/04/01 12:40:13;;;;;;;;;;;;;;;17.88;52.27;101168.72;5014228;28;1440;-55
2021/04/01 12:42:38;;;;;;;;;;;;;;;17.86;51.36;101176.88;5012032;28;1660;-56
2021/04/01 12:45:32;;;;;;;;;;;;;;;17.84;51.51;101165.44;5015675;28;1536;-55
2021/04/01 12:48:07;;;;;;;;;;;;;;;17.85;52.22;101161.81;5011154;28;1846;-55
2021/04/01 12:50:34;;;;;;;;;;;;;;;17.86;52.85;101168.00;5007874;28;1309;-56
2021/04/01 12:53:00;;;;;;;;;;;;;;;17.87;51.96;101167.88;5010076;28;1417;-56
2021/04/01 12:56:14;;;;;;;;;;;;;;;17.85;52.25;101156.47;5012357;28;1297;-56
2021/04/01 12:58:23;;;;;;;;;;;;;;;17.85;52.30;101163.63;5003146;28;1967;-55
2021/04/01 13:00:52;;;;;;;;;;;;;;;17.84;52.16;101149.38;5010154;28;1270;-55
2021/04/01 13:03:17;;;;;;;;;;;;;;;17.84;53.01;101152.06;5001103;28;1421;-55
2021/04/01 13:05:45;;;;;;;;;;;;;;;17.87;52.28;101159.88;5004505;28;1684;-56
2021/04/01 13:10:42;;;;;;;;;;;;;;;17.83;52.81;101144.16;5010604;28;1475;-55
2021/04/01 13:13:08;;;;;;;;;;;;;;;17.80;53.89;101137.19;5007420;28;1347;-55
2021/04/01 13:15:33;;;;;;;;;;;;;;;17.83;53.84;101136.13;5013665;28;1244;-55
2021/04/01 13:17:59;;;;;;;;;;;;;;;17.79;53.33;101126.63;5011301;28;1985;-55
2021/04/01 13:20:24;;;;;;;;;;;;;;;17.79;53.68;101119.44;5011712;28;1490;-55
2021/04/01 13:23:08;;;;;;;;;;;;;;;17.78;53.25;101116.88;5011765;28;1458;-55
2021/04/01 13:25:34;;;;;;;;;;;;;;;17.78;53.45;101109.69;5007220;28;1480;-55
2021/04/01 13:28:02;;;;;;;;;;;;;;;17.79;54.07;101114.09;5006503;28;1304;-56
2021/04/01 13:30:30;;;;;;;;;;;;;;;17.80;54.19;101107.75;5004739;28;1256;-55
2021/04/01 13:33:04;;;;;;;;;;;;;;;17.80;54.45;101105.09;5009798;28;1661;-55
2021/04/01 13:35:41;;;;;;;;;;;;;;;17.80;53.67;101102.41;5007936;28;1728;-56
2021/04/01 13:40:39;;;;;;;;;;;;;;;17.83;53.80;101104.03;5004658;28;1390;-55
2021/04/01 13:43:05;;;;;;;;;;;;;;;17.82;53.38;101096.94;5002015;28;1414;-54
2021/04/01 13:45:30;;;;;;;;;;;;;;;17.93;52.92;101088.13;5011731;28;1144;-55
2021/04/01 13:48:03;;;;;;;;;;;;;;;17.98;53.38;101085.94;5010851;28;1672;-57
2021/04/01 13:50:31;;;;;;;;;;;;;;;17.94;53.90;101076.44;5009495;28;1800;-61
2021/04/01 13:55:42;;;;;;;;;;;;;;;17.84;54.07;101069.13;5011284;28;1309;-60
2021/04/01 14:09:18;;;;;;;;;;;;;;;17.80;54.00;101056.94;5008136;28;1507;-60
2021/04/01 14:11:43;;;;;;;;;;;;;;;17.83;55.74;101055.88;5005347;28;1551;-63
2021/04/01 14:14:11;;;;;;;;;;;;;;;17.83;55.75;101055.88;5013458;28;1604;-56
2021/04/01 14:16:37;;;;;;;;;;;;;;;17.82;55.63;101046.97;5010238;28;1907;-57
2021/04/01 14:19:04;;;;;;;;;;;;;;;17.80;56.01;101048.06;4998730;28;1134;-61
2021/04/01 14:21:29;;;;;;;;;;;;;;;17.80;55.22;101050.75;5007519;28;1172;-56
2021/04/01 14:23:55;;;;;;;;;;;;;;;17.77;55.92;101043.81;5007370;28;1352;-56
2021/04/01 14:27:04;;;;;;;;;;;;;;;17.78;56.28;101048.19;5005783;28;1426;-57
2021/04/01 14:29:11;;;;;;;;;;;;;;;17.78;55.57;101037.47;5001157;28;1493;-61
2021/04/01 14:31:37;;;;;;;;;;;;;;;17.78;56.35;101047.34;5009351;28;1402;-56
2021/04/01 14:34:02;;;;;;;;;;;;;;;17.77;56.32;101041.16;5002759;28;1405;-56
2021/04/01 14:36:28;;;;;;;;;;;;;;;17.77;55.39;101027.78;4996435;28;1969;-56
2021/04/01 14:38:53;;;;;;;;;;;;;;;17.76;55.25;101020.69;5002980;28;1240;-57
2021/04/01 14:41:42;;;;;;;;;;;;;;;17.73;55.72;101031.66;5007066;28;1377;-59
2021/04/01 14:46:36;;;;;;;;;;;;;;;17.74;55.58;101025.31;5007555;28;1310;-60